sensor_id;sensor_type;location;lat;lon;timestamp;pressure;altitude;pressure_sealevel;temperature;humidity
82395;BME280;72031;51.786;4.662;2023-08-06T00:02:12;100469.69;;;16.77;77.95
82395;BME280;72031;51.786;4.662;2023-08-06T00:04:38;100467.47;;;16.72;77.26
82395;BME280;72031;51.786;4.662;2023-08-06T00:07:03;100474.16;;;16.68;77.81
82395;BME280;72031;51.786;4.662;2023-08-06T00:09:29;100472.75;;;16.64;78.49
82395;BME280;72031;51.786;4.662;2023-08-06T00:11:54;100476.16;;;16.66;77.97
82395;BME280;72031;51.786;4.662;2023-08-06T00:14:20;100480.25;;;16.70;78.22
82395;BME280;72031;51.786;4.662;2023-08-06T00:16:45;100478.97;;;16.74;78.28
82395;BME280;72031;51.786;4.662;2023-08-06T00:19:11;100474.56;;;16.73;77.80
82395;BME280;72031;51.786;4.662;2023-08-06T00:21:37;100475.53;;;16.72;78.00
82395;BME280;72031;51.786;4.662;2023-08-06T00:24:02;100472.16;;;16.70;77.45
82395;BME280;72031;51.786;4.662;2023-08-06T00:26:28;100470.59;;;16.68;78.10
82395;BME280;72031;51.786;4.662;2023-08-06T00:28:53;100481.84;;;16.63;77.84
82395;BME280;72031;51.786;4.662;2023-08-06T00:31:19;100477.16;;;16.65;78.50
82395;BME280;72031;51.786;4.662;2023-08-06T00:33:44;100476.28;;;16.65;77.69
82395;BME280;72031;51.786;4.662;2023-08-06T00:36:09;100472.75;;;16.64;78.28
82395;BME280;72031;51.786;4.662;2023-08-06T00:38:35;100473.31;;;16.68;78.15
82395;BME280;72031;51.786;4.662;2023-08-06T00:41:00;100479.25;;;16.71;77.60
82395;BME280;72031;51.786;4.662;2023-08-06T00:43:26;100472.16;;;16.70;77.75
82395;BME280;72031;51.786;4.662;2023-08-06T00:45:52;100465.94;;;16.70;78.14
82395;BME280;72031;51.786;4.662;2023-08-06T00:48:17;100473.56;;;16.74;77.26
82395;BME280;72031;51.786;4.662;2023-08-06T00:50:43;100469.88;;;16.75;77.17
82395;BME280;72031;51.786;4.662;2023-08-06T00:53:09;100471.44;;;16.68;77.89
82395;BME280;72031;51.786;4.662;2023-08-06T00:55:35;100469.75;;;16.67;78.25
82395;BME280;72031;51.786;4.662;2023-08-06T00:58:02;100466.94;;;16.69;77.95
82395;BME280;72031;51.786;4.662;2023-08-06T01:00:28;100471.31;;;16.70;77.83
82395;BME280;72031;51.786;4.662;2023-08-06T01:02:54;100464.63;;;16.74;77.23
82395;BME280;72031;51.786;4.662;2023-08-06T01:05:20;100474.25;;;16.76;77.56
82395;BME280;72031;51.786;4.662;2023-08-06T01:13:45;100474.25;;;16.76;77.09
82395;BME280;72031;51.786;4.662;2023-08-06T01:16:18;100477.09;;;16.75;77.21
82395;BME280;72031;51.786;4.662;2023-08-06T01:18:44;100473.09;;;16.79;77.09
82395;BME280;72031;51.786;4.662;2023-08-06T01:21:16;100473.56;;;16.74;77.67
82395;BME280;72031;51.786;4.662;2023-08-06T01:23:42;100477.41;;;16.72;77.36
82395;BME280;72031;51.786;4.662;2023-08-06T01:26:28;100469.47;;;16.70;77.96
82395;BME280;72031;51.786;4.662;2023-08-06T01:31:37;100472.22;;;16.78;78.05
82395;BME280;72031;51.786;4.662;2023-08-06T01:34:08;100477.16;;;16.83;77.03
82395;BME280;72031;51.786;4.662;2023-08-06T01:36:35;100470.78;;;16.84;76.79
82395;BME280;72031;51.786;4.662;2023-08-06T01:39:01;100477.31;;;16.81;77.39
82395;BME280;72031;51.786;4.662;2023-08-06T01:41:27;100480.38;;;16.86;76.59
82395;BME280;72031;51.786;4.662;2023-08-06T01:43:52;100480.06;;;16.89;76.35
82395;BME280;72031;51.786;4.662;2023-08-06T01:46:18;100480.06;;;16.89;76.95
82395;BME280;72031;51.786;4.662;2023-08-06T01:48:43;100492.25;;;16.94;77.14
82395;BME280;72031;51.786;4.662;2023-08-06T01:51:09;100480.28;;;16.96;77.17
82395;BME280;72031;51.786;4.662;2023-08-06T01:53:34;100485.16;;;16.93;76.52
82395;BME280;72031;51.786;4.662;2023-08-06T01:56:00;100481.97;;;16.97;77.35
82395;BME280;72031;51.786;4.662;2023-08-06T01:58:25;100494.78;;;16.95;76.54
82395;BME280;72031;51.786;4.662;2023-08-06T02:00:50;100485.84;;;16.95;76.85
82395;BME280;72031;51.786;4.662;2023-08-06T02:03:16;100482.47;;;16.93;76.93
82395;BME280;72031;51.786;4.662;2023-08-06T02:05:42;100499.31;;;16.95;76.58
82395;BME280;72031;51.786;4.662;2023-08-06T02:08:08;100499.16;;;16.96;76.84
82395;BME280;72031;51.786;4.662;2023-08-06T02:10:33;100494.94;;;16.94;76.75
82395;BME280;72031;51.786;4.662;2023-08-06T02:12:59;100502.03;;;16.95;76.57
82395;BME280;72031;51.786;4.662;2023-08-06T02:15:24;100503.34;;;16.91;77.24
82395;BME280;72031;51.786;4.662;2023-08-06T02:17:50;100506.72;;;16.93;76.44
82395;BME280;72031;51.786;4.662;2023-08-06T02:20:15;100502.63;;;16.88;76.87
82395;BME280;72031;51.786;4.662;2023-08-06T02:22:41;100505.19;;;16.90;76.79
82395;BME280;72031;51.786;4.662;2023-08-06T02:25:06;100501.34;;;16.93;76.64
82395;BME280;72031;51.786;4.662;2023-08-06T02:27:32;100505.03;;;16.92;76.52
82395;BME280;72031;51.786;4.662;2023-08-06T02:29:57;100504.50;;;16.88;77.17
82395;BME280;72031;51.786;4.662;2023-08-06T02:32:23;100500.25;;;16.85;77.42
82395;BME280;72031;51.786;4.662;2023-08-06T02:34:48;100507.66;;;16.83;77.42
82395;BME280;72031;51.786;4.662;2023-08-06T02:37:14;100502.28;;;16.83;76.95
82395;BME280;72031;51.786;4.662;2023-08-06T02:39:39;100508.66;;;16.82;77.73
82395;BME280;72031;51.786;4.662;2023-08-06T02:42:08;100500.88;;;16.79;77.80
82395;BME280;72031;51.786;4.662;2023-08-06T02:44:35;100510.81;;;16.79;77.92
82395;BME280;72031;51.786;4.662;2023-08-06T02:47:01;100506.09;;;16.81;78.22
82395;BME280;72031;51.786;4.662;2023-08-06T02:49:26;100508.97;;;16.79;77.83
82395;BME280;72031;51.786;4.662;2023-08-06T02:51:52;100514.34;;;16.79;77.89
82395;BME280;72031;51.786;4.662;2023-08-06T02:54:20;100501.88;;;16.78;77.30
82395;BME280;72031;51.786;4.662;2023-08-06T02:56:46;100511.97;;;16.76;77.35
82395;BME280;72031;51.786;4.662;2023-08-06T02:59:12;100501.81;;;16.70;78.03
82395;BME280;72031;51.786;4.662;2023-08-06T03:01:38;100510.34;;;16.66;78.03
82395;BME280;72031;51.786;4.662;2023-08-06T03:04:04;100507.50;;;16.67;78.51
82395;BME280;72031;51.786;4.662;2023-08-06T03:06:30;100507.38;;;16.69;78.01
82395;BME280;72031;51.786;4.662;2023-08-06T03:08:55;100500.81;;;16.71;78.39
82395;BME280;72031;51.786;4.662;2023-08-06T03:11:21;100508.22;;;16.69;78.13
82395;BME280;72031;51.786;4.662;2023-08-06T03:13:47;100507.09;;;16.62;77.91
82395;BME280;72031;51.786;4.662;2023-08-06T03:16:13;100505.00;;;16.56;78.42
82395;BME280;72031;51.786;4.662;2023-08-06T03:18:38;100507.56;;;16.57;78.50
82395;BME280;72031;51.786;4.662;2023-08-06T03:21:04;100506.09;;;16.63;78.52
82395;BME280;72031;51.786;4.662;2023-08-06T03:23:30;100502.38;;;16.64;78.08
82395;BME280;72031;51.786;4.662;2023-08-06T03:25:55;100510.91;;;16.69;78.76
82395;BME280;72031;51.786;4.662;2023-08-06T03:28:21;100505.94;;;16.65;79.19
82395;BME280;72031;51.786;4.662;2023-08-06T03:30:47;100515.28;;;16.70;78.76
82395;BME280;72031;51.786;4.662;2023-08-06T03:33:13;100515.00;;;16.73;78.53
82395;BME280;72031;51.786;4.662;2023-08-06T03:35:38;100515.88;;;16.64;78.80
82395;BME280;72031;51.786;4.662;2023-08-06T03:38:04;100514.34;;;16.61;79.32
82395;BME280;72031;51.786;4.662;2023-08-06T03:40:29;100515.66;;;16.57;79.62
82395;BME280;72031;51.786;4.662;2023-08-06T03:42:55;100513.81;;;16.58;79.10
82395;BME280;72031;51.786;4.662;2023-08-06T03:45:20;100518.13;;;16.51;80.17
82395;BME280;72031;51.786;4.662;2023-08-06T03:47:46;100511.28;;;16.56;79.06
82395;BME280;72031;51.786;4.662;2023-08-06T03:50:11;100517.34;;;16.58;79.42
82395;BME280;72031;51.786;4.662;2023-08-06T03:52:37;100515.34;;;16.60;79.98
82395;BME280;72031;51.786;4.662;2023-08-06T03:55:02;100522.19;;;16.55;79.51
82395;BME280;72031;51.786;4.662;2023-08-06T03:57:27;100522.56;;;16.60;79.91
82395;BME280;72031;51.786;4.662;2023-08-06T03:59:53;100525.94;;;16.62;79.83
82395;BME280;72031;51.786;4.662;2023-08-06T04:02:18;100526.56;;;16.56;79.07
82395;BME280;72031;51.786;4.662;2023-08-06T04:04:44;100533.19;;;16.44;79.81
82395;BME280;72031;51.786;4.662;2023-08-06T04:07:09;100530.91;;;16.21;80.55
82395;BME280;72031;51.786;4.662;2023-08-06T04:09:52;100535.16;;;16.24;80.95
82395;BME280;72031;51.786;4.662;2023-08-06T04:12:17;100536.47;;;16.20;80.84
82395;BME280;72031;51.786;4.662;2023-08-06T04:14:43;100544.34;;;16.03;80.22
82395;BME280;72031;51.786;4.662;2023-08-06T04:17:08;100553.63;;;15.91;80.86
82395;BME280;72031;51.786;4.662;2023-08-06T04:19:34;100545.38;;;15.65;81.53
82395;BME280;72031;51.786;4.662;2023-08-06T04:21:59;100553.19;;;15.49;82.12
82395;BME280;72031;51.786;4.662;2023-08-06T04:24:25;100551.47;;;15.38;82.67
82395;BME280;72031;51.786;4.662;2023-08-06T04:26:50;100566.25;;;15.25;83.33
82395;BME280;72031;51.786;4.662;2023-08-06T04:29:15;100567.13;;;15.15;83.71
82395;BME280;72031;51.786;4.662;2023-08-06T04:31:41;100578.84;;;15.14;82.69
82395;BME280;72031;51.786;4.662;2023-08-06T04:34:06;100592.31;;;15.14;83.51
82395;BME280;72031;51.786;4.662;2023-08-06T04:36:34;100601.34;;;15.04;80.75
82395;BME280;72031;51.786;4.662;2023-08-06T04:38:59;100605.00;;;14.64;78.56
82395;BME280;72031;51.786;4.662;2023-08-06T04:41:25;100612.38;;;14.22;79.64
82395;BME280;72031;51.786;4.662;2023-08-06T04:43:50;100614.41;;;14.08;80.18
82395;BME280;72031;51.786;4.662;2023-08-06T04:46:16;100612.56;;;13.99;80.54
82395;BME280;72031;51.786;4.662;2023-08-06T04:48:41;100622.56;;;13.97;80.64
82395;BME280;72031;51.786;4.662;2023-08-06T04:51:07;100618.72;;;13.90;81.31
82395;BME280;72031;51.786;4.662;2023-08-06T04:53:32;100625.31;;;13.86;81.93
82395;BME280;72031;51.786;4.662;2023-08-06T04:55:58;100632.00;;;13.92;82.08
82395;BME280;72031;51.786;4.662;2023-08-06T04:58:23;100633.00;;;13.91;82.72
82395;BME280;72031;51.786;4.662;2023-08-06T05:00:48;100627.34;;;13.94;82.03
82395;BME280;72031;51.786;4.662;2023-08-06T05:03:14;100632.75;;;14.03;82.31
82395;BME280;72031;51.786;4.662;2023-08-06T05:05:40;100637.03;;;14.06;83.15
82395;BME280;72031;51.786;4.662;2023-08-06T05:08:06;100636.47;;;14.12;82.28
82395;BME280;72031;51.786;4.662;2023-08-06T05:10:32;100635.34;;;14.15;82.92
82395;BME280;72031;51.786;4.662;2023-08-06T05:12:58;100643.44;;;14.24;82.41
82395;BME280;72031;51.786;4.662;2023-08-06T05:15:23;100637.53;;;14.30;82.27
82395;BME280;72031;51.786;4.662;2023-08-06T05:17:50;100637.13;;;14.35;82.13
82395;BME280;72031;51.786;4.662;2023-08-06T05:20:16;100648.84;;;14.34;82.06
82395;BME280;72031;51.786;4.662;2023-08-06T05:22:43;100648.44;;;14.39;82.33
82395;BME280;72031;51.786;4.662;2023-08-06T05:25:08;100655.22;;;14.43;82.47
82395;BME280;72031;51.786;4.662;2023-08-06T05:27:34;100654.59;;;14.50;82.62
82395;BME280;72031;51.786;4.662;2023-08-06T05:29:59;100654.44;;;14.52;82.89
82395;BME280;72031;51.786;4.662;2023-08-06T05:32:25;100671.84;;;14.57;83.25
82395;BME280;72031;51.786;4.662;2023-08-06T05:34:50;100666.50;;;14.67;82.11
82395;BME280;72031;51.786;4.662;2023-08-06T05:37:16;100669.75;;;14.71;82.79
82395;BME280;72031;51.786;4.662;2023-08-06T05:39:41;100680.25;;;14.74;82.78
82395;BME280;72031;51.786;4.662;2023-08-06T05:42:06;100677.25;;;14.77;82.88
82395;BME280;72031;51.786;4.662;2023-08-06T05:44:33;100682.38;;;14.80;82.75
82395;BME280;72031;51.786;4.662;2023-08-06T05:46:58;100693.25;;;14.78;83.22
82395;BME280;72031;51.786;4.662;2023-08-06T05:49:24;100695.53;;;14.83;82.66
82395;BME280;72031;51.786;4.662;2023-08-06T05:51:49;100698.63;;;14.88;82.45
82395;BME280;72031;51.786;4.662;2023-08-06T05:54:15;100704.75;;;14.90;82.75
82395;BME280;72031;51.786;4.662;2023-08-06T05:56:40;100705.88;;;14.97;82.94
82395;BME280;72031;51.786;4.662;2023-08-06T05:59:06;100715.06;;;15.04;81.92
82395;BME280;72031;51.786;4.662;2023-08-06T06:01:31;100717.50;;;15.07;82.72
82395;BME280;72031;51.786;4.662;2023-08-06T06:03:57;100720.88;;;15.09;82.20
82395;BME280;72031;51.786;4.662;2023-08-06T06:06:22;100725.97;;;15.12;82.20
82395;BME280;72031;51.786;4.662;2023-08-06T06:08:48;100719.91;;;15.10;82.43
82395;BME280;72031;51.786;4.662;2023-08-06T06:11:13;100733.78;;;15.15;81.59
82395;BME280;72031;51.786;4.662;2023-08-06T06:13:39;100722.88;;;15.07;82.41
82395;BME280;72031;51.786;4.662;2023-08-06T06:16:04;100733.78;;;15.15;82.83
82395;BME280;72031;51.786;4.662;2023-08-06T06:18:30;100730.94;;;15.17;82.75
82395;BME280;72031;51.786;4.662;2023-08-06T06:20:56;100741.00;;;15.25;81.53
82395;BME280;72031;51.786;4.662;2023-08-06T06:23:21;100738.03;;;15.28;81.39
82395;BME280;72031;51.786;4.662;2023-08-06T06:25:49;100744.41;;;15.36;81.67
82395;BME280;72031;51.786;4.662;2023-08-06T06:28:17;100742.41;;;15.38;81.88
82395;BME280;72031;51.786;4.662;2023-08-06T06:30:43;100741.31;;;15.41;81.60
82395;BME280;72031;51.786;4.662;2023-08-06T06:33:08;100754.47;;;15.44;81.68
82395;BME280;72031;51.786;4.662;2023-08-06T06:35:34;100754.19;;;15.47;81.78
82395;BME280;72031;51.786;4.662;2023-08-06T06:37:59;100754.19;;;15.47;80.42
82395;BME280;72031;51.786;4.662;2023-08-06T06:40:25;100759.84;;;15.44;81.56
82395;BME280;72031;51.786;4.662;2023-08-06T06:42:51;100768.03;;;15.33;80.73
82395;BME280;72031;51.786;4.662;2023-08-06T06:45:16;100766.75;;;15.37;80.98
82395;BME280;72031;51.786;4.662;2023-08-06T06:47:42;100782.50;;;15.41;80.83
82395;BME280;72031;51.786;4.662;2023-08-06T06:50:07;100778.81;;;15.33;80.53
82395;BME280;72031;51.786;4.662;2023-08-06T06:52:33;100768.31;;;15.30;80.30
82395;BME280;72031;51.786;4.662;2023-08-06T06:54:58;100781.63;;;15.31;79.07
82395;BME280;72031;51.786;4.662;2023-08-06T06:57:24;100790.41;;;15.24;80.85
82395;BME280;72031;51.786;4.662;2023-08-06T06:59:49;100783.75;;;15.28;80.30
82395;BME280;72031;51.786;4.662;2023-08-06T07:02:15;100786.03;;;15.32;80.75
82395;BME280;72031;51.786;4.662;2023-08-06T07:04:40;100784.88;;;15.44;80.54
82395;BME280;72031;51.786;4.662;2023-08-06T07:07:06;100792.97;;;15.44;79.14
82395;BME280;72031;51.786;4.662;2023-08-06T07:09:31;100792.25;;;15.42;79.35
82395;BME280;72031;51.786;4.662;2023-08-06T07:11:57;100794.94;;;15.42;78.84
82395;BME280;72031;51.786;4.662;2023-08-06T07:14:25;100807.25;;;15.35;79.00
82395;BME280;72031;51.786;4.662;2023-08-06T07:16:50;100797.78;;;15.41;79.20
82395;BME280;72031;51.786;4.662;2023-08-06T07:19:16;100810.94;;;15.44;79.85
82395;BME280;72031;51.786;4.662;2023-08-06T07:21:41;100800.31;;;15.42;79.09
82395;BME280;72031;51.786;4.662;2023-08-06T07:24:06;100812.38;;;15.48;78.01
82395;BME280;72031;51.786;4.662;2023-08-06T07:26:32;100808.00;;;15.47;79.70
82395;BME280;72031;51.786;4.662;2023-08-06T07:28:57;100806.34;;;15.65;79.95
82395;BME280;72031;51.786;4.662;2023-08-06T07:31:23;100808.88;;;15.76;77.34
82395;BME280;72031;51.786;4.662;2023-08-06T07:33:48;100815.56;;;15.72;76.64
82395;BME280;72031;51.786;4.662;2023-08-06T07:36:15;100812.13;;;15.80;77.47
82395;BME280;72031;51.786;4.662;2023-08-06T07:38:41;100817.09;;;15.85;78.52
82395;BME280;72031;51.786;4.662;2023-08-06T07:41:07;100816.81;;;15.78;78.16
82395;BME280;72031;51.786;4.662;2023-08-06T07:43:33;100821.63;;;15.84;77.72
82395;BME280;72031;51.786;4.662;2023-08-06T07:46:00;100816.81;;;15.88;78.21
82395;BME280;72031;51.786;4.662;2023-08-06T07:48:26;100817.38;;;16.01;75.28
82395;BME280;72031;51.786;4.662;2023-08-06T07:50:52;100820.78;;;15.93;75.64
82395;BME280;72031;51.786;4.662;2023-08-06T07:53:20;100821.03;;;15.81;75.98
82395;BME280;72031;51.786;4.662;2023-08-06T07:55:53;100823.63;;;15.82;77.42
82395;BME280;72031;51.786;4.662;2023-08-06T07:58:19;100827.00;;;15.84;76.34
82395;BME280;72031;51.786;4.662;2023-08-06T08:00:46;100827.88;;;15.85;76.27
82395;BME280;72031;51.786;4.662;2023-08-06T08:03:13;100825.31;;;15.93;76.06
82395;BME280;72031;51.786;4.662;2023-08-06T08:05:40;100820.78;;;16.03;73.60
82395;BME280;72031;51.786;4.662;2023-08-06T08:08:06;100823.59;;;16.11;76.01
82395;BME280;72031;51.786;4.662;2023-08-06T08:10:32;100828.44;;;15.98;74.30
82395;BME280;72031;51.786;4.662;2023-08-06T08:12:58;100819.22;;;16.10;73.95
82395;BME280;72031;51.786;4.662;2023-08-06T08:15:24;100814.53;;;16.12;74.33
82395;BME280;72031;51.786;4.662;2023-08-06T08:17:51;100823.56;;;16.30;73.99
82395;BME280;72031;51.786;4.662;2023-08-06T08:20:17;100827.81;;;16.43;73.33
82395;BME280;72031;51.786;4.662;2023-08-06T08:22:43;100823.94;;;16.55;73.60
82395;BME280;72031;51.786;4.662;2023-08-06T08:25:08;100830.06;;;16.57;73.27
82395;BME280;72031;51.786;4.662;2023-08-06T08:27:34;100829.78;;;16.50;73.24
82395;BME280;72031;51.786;4.662;2023-08-06T08:29:59;100837.72;;;16.52;72.50
82395;BME280;72031;51.786;4.662;2023-08-06T08:32:25;100835.41;;;16.67;73.15
82395;BME280;72031;51.786;4.662;2023-08-06T08:34:50;100830.28;;;16.64;72.53
82395;BME280;72031;51.786;4.662;2023-08-06T08:37:16;100831.84;;;16.76;72.48
82395;BME280;72031;51.786;4.662;2023-08-06T08:39:41;100835.41;;;16.76;70.63
82395;BME280;72031;51.786;4.662;2023-08-06T08:42:07;100835.34;;;16.86;70.73
82395;BME280;72031;51.786;4.662;2023-08-06T08:44:34;100828.28;;;16.85;71.22
82395;BME280;72031;51.786;4.662;2023-08-06T08:47:05;100832.84;;;16.75;71.22
82395;BME280;72031;51.786;4.662;2023-08-06T08:49:31;100836.06;;;16.88;70.90
82395;BME280;72031;51.786;4.662;2023-08-06T08:51:59;100842.97;;;17.00;70.24
82395;BME280;72031;51.786;4.662;2023-08-06T08:54:27;100840.22;;;17.10;70.93
82395;BME280;72031;51.786;4.662;2023-08-06T08:56:53;100839.28;;;17.29;70.53
82395;BME280;72031;51.786;4.662;2023-08-06T08:59:20;100842.81;;;17.29;68.33
82395;BME280;72031;51.786;4.662;2023-08-06T09:01:48;100839.97;;;17.31;69.00
82395;BME280;72031;51.786;4.662;2023-08-06T09:04:18;100853.00;;;17.35;67.38
82395;BME280;72031;51.786;4.662;2023-08-06T09:06:47;100849.16;;;17.38;67.11
82395;BME280;72031;51.786;4.662;2023-08-06T09:09:26;100858.09;;;17.38;67.29
82395;BME280;72031;51.786;4.662;2023-08-06T09:12:00;100851.84;;;17.38;67.54
82395;BME280;72031;51.786;4.662;2023-08-06T09:14:27;100858.84;;;17.58;66.95
82395;BME280;72031;51.786;4.662;2023-08-06T09:16:53;100852.72;;;18.02;65.94
82395;BME280;72031;51.786;4.662;2023-08-06T09:19:19;100854.81;;;18.08;66.89
82395;BME280;72031;51.786;4.662;2023-08-06T09:21:45;100853.50;;;17.94;64.03
82395;BME280;72031;51.786;4.662;2023-08-06T09:24:14;100858.56;;;17.79;64.54
82395;BME280;72031;51.786;4.662;2023-08-06T09:26:44;100869.97;;;17.73;64.65
82395;BME280;72031;51.786;4.662;2023-08-06T09:29:11;100858.22;;;17.92;64.84
82395;BME280;72031;51.786;4.662;2023-08-06T09:31:49;100866.22;;;17.84;64.71
82395;BME280;72031;51.786;4.662;2023-08-06T09:34:20;100870.53;;;17.77;64.64
82395;BME280;72031;51.786;4.662;2023-08-06T09:36:51;100867.47;;;17.62;65.48
82395;BME280;72031;51.786;4.662;2023-08-06T09:39:26;100878.22;;;17.71;65.66
82395;BME280;72031;51.786;4.662;2023-08-06T09:41:56;100869.56;;;17.68;63.65
82395;BME280;72031;51.786;4.662;2023-08-06T09:44:23;100888.56;;;17.49;63.79
82395;BME280;72031;51.786;4.662;2023-08-06T09:46:51;100891.22;;;17.58;63.03
82395;BME280;72031;51.786;4.662;2023-08-06T09:49:18;100894.94;;;17.57;63.01
82395;BME280;72031;51.786;4.662;2023-08-06T09:51:45;100902.56;;;17.62;61.27
82395;BME280;72031;51.786;4.662;2023-08-06T09:54:15;100899.66;;;17.73;61.47
82395;BME280;72031;51.786;4.662;2023-08-06T09:56:42;100905.38;;;17.70;61.65
82395;BME280;72031;51.786;4.662;2023-08-06T09:59:08;100909.34;;;17.76;60.84
82395;BME280;72031;51.786;4.662;2023-08-06T10:01:35;100905.88;;;17.83;61.51
82395;BME280;72031;51.786;4.662;2023-08-06T10:04:03;100908.19;;;17.96;61.65
82395;BME280;72031;51.786;4.662;2023-08-06T10:06:31;100911.22;;;18.11;60.23
82395;BME280;72031;51.786;4.662;2023-08-06T10:08:58;100918.38;;;18.02;59.28
82395;BME280;72031;51.786;4.662;2023-08-06T10:11:24;100914.34;;;17.88;61.91
82395;BME280;72031;51.786;4.662;2023-08-06T10:14:00;100916.59;;;17.93;61.28
82395;BME280;72031;51.786;4.662;2023-08-06T10:16:29;100914.84;;;18.02;61.60
82395;BME280;72031;51.786;4.662;2023-08-06T10:18:57;100907.34;;;18.13;60.12
82395;BME280;72031;51.786;4.662;2023-08-06T10:21:25;100922.00;;;18.28;59.54
82395;BME280;72031;51.786;4.662;2023-08-06T10:23:54;100916.69;;;18.19;62.69
82395;BME280;72031;51.786;4.662;2023-08-06T10:26:20;100916.53;;;18.38;59.17
82395;BME280;72031;51.786;4.662;2023-08-06T10:28:46;100926.22;;;18.49;60.53
82395;BME280;72031;51.786;4.662;2023-08-06T10:31:12;100921.75;;;18.40;60.12
82395;BME280;72031;51.786;4.662;2023-08-06T10:33:45;100922.00;;;18.46;59.44
82395;BME280;72031;51.786;4.662;2023-08-06T10:36:12;100926.09;;;18.50;60.07
82395;BME280;72031;51.786;4.662;2023-08-06T10:38:48;100925.38;;;18.48;60.15
82395;BME280;72031;51.786;4.662;2023-08-06T10:41:23;100918.59;;;18.44;59.72
82395;BME280;72031;51.786;4.662;2023-08-06T10:43:52;100924.19;;;18.43;60.56
82395;BME280;72031;51.786;4.662;2023-08-06T10:46:30;100937.75;;;18.51;60.07
82395;BME280;72031;51.786;4.662;2023-08-06T10:48:56;100930.94;;;18.47;59.30
82395;BME280;72031;51.786;4.662;2023-08-06T10:51:22;100926.94;;;18.51;60.54
82395;BME280;72031;51.786;4.662;2023-08-06T10:53:49;100937.88;;;18.49;61.13
82395;BME280;72031;51.786;4.662;2023-08-06T10:56:20;100938.38;;;18.45;60.44
82395;BME280;72031;51.786;4.662;2023-08-06T10:58:48;100938.75;;;18.32;59.73
82395;BME280;72031;51.786;4.662;2023-08-06T11:01:15;100944.00;;;18.16;59.29
82395;BME280;72031;51.786;4.662;2023-08-06T11:03:42;100947.50;;;18.26;59.87
82395;BME280;72031;51.786;4.662;2023-08-06T11:06:09;100948.50;;;18.25;58.89
82395;BME280;72031;51.786;4.662;2023-08-06T11:08:40;100949.47;;;18.24;58.44
82395;BME280;72031;51.786;4.662;2023-08-06T11:11:13;100952.06;;;18.43;58.21
82395;BME280;72031;51.786;4.662;2023-08-06T11:13:40;100946.56;;;18.35;56.74
82395;BME280;72031;51.786;4.662;2023-08-06T11:16:05;100940.94;;;18.28;57.63
82395;BME280;72031;51.786;4.662;2023-08-06T11:18:32;100942.47;;;18.31;58.34
82395;BME280;72031;51.786;4.662;2023-08-06T11:20:59;100950.72;;;18.29;62.38
82395;BME280;72031;51.786;4.662;2023-08-06T11:23:27;100948.25;;;18.18;66.10
82395;BME280;72031;51.786;4.662;2023-08-06T11:25:53;100946.59;;;17.90;65.60
82395;BME280;72031;51.786;4.662;2023-08-06T11:28:19;100950.44;;;17.60;69.37
82395;BME280;72031;51.786;4.662;2023-08-06T11:30:47;100942.59;;;17.66;67.48
82395;BME280;72031;51.786;4.662;2023-08-06T11:33:13;100947.81;;;17.50;65.10
82395;BME280;72031;51.786;4.662;2023-08-06T11:35:38;100956.69;;;17.23;68.20
82395;BME280;72031;51.786;4.662;2023-08-06T11:38:05;100959.94;;;17.36;67.14
82395;BME280;72031;51.786;4.662;2023-08-06T11:40:35;100952.34;;;17.50;66.90
82395;BME280;72031;51.786;4.662;2023-08-06T11:43:01;100959.13;;;17.54;66.76
82395;BME280;72031;51.786;4.662;2023-08-06T11:45:26;100945.22;;;17.58;65.00
82395;BME280;72031;51.786;4.662;2023-08-06T11:47:52;100959.84;;;17.56;65.54
82395;BME280;72031;51.786;4.662;2023-08-06T11:50:22;100958.94;;;17.65;65.86
82395;BME280;72031;51.786;4.662;2023-08-06T11:52:48;100951.25;;;17.97;64.47
82395;BME280;72031;51.786;4.662;2023-08-06T11:55:17;100948.03;;;18.12;64.36
82395;BME280;72031;51.786;4.662;2023-08-06T11:57:44;100941.63;;;18.31;62.92
82395;BME280;72031;51.786;4.662;2023-08-06T12:00:10;100957.97;;;18.11;64.60
82395;BME280;72031;51.786;4.662;2023-08-06T12:02:39;100958.91;;;18.20;61.08
82395;BME280;72031;51.786;4.662;2023-08-06T12:05:17;100944.94;;;18.42;61.39
82395;BME280;72031;51.786;4.662;2023-08-06T12:07:48;100946.38;;;18.54;61.27
82395;BME280;72031;51.786;4.662;2023-08-06T12:10:15;100956.75;;;18.59;60.43
82395;BME280;72031;51.786;4.662;2023-08-06T12:12:41;100962.44;;;18.74;60.85
82395;BME280;72031;51.786;4.662;2023-08-06T12:15:08;100956.53;;;18.70;60.97
82395;BME280;72031;51.786;4.662;2023-08-06T12:17:34;100979.69;;;18.37;60.22
82395;BME280;72031;51.786;4.662;2023-08-06T12:19:59;100979.41;;;17.95;60.83
82395;BME280;72031;51.786;4.662;2023-08-06T12:22:25;100993.72;;;17.78;62.28
82395;BME280;72031;51.786;4.662;2023-08-06T12:24:51;100983.78;;;17.78;60.81
82395;BME280;72031;51.786;4.662;2023-08-06T12:27:17;100993.16;;;17.64;61.13
82395;BME280;72031;51.786;4.662;2023-08-06T12:29:46;100985.78;;;17.76;62.01
82395;BME280;72031;51.786;4.662;2023-08-06T12:32:12;100990.47;;;18.02;60.89
82395;BME280;72031;51.786;4.662;2023-08-06T12:34:39;100994.88;;;18.20;60.07
82395;BME280;72031;51.786;4.662;2023-08-06T12:37:05;100991.75;;;18.43;59.37
82395;BME280;72031;51.786;4.662;2023-08-06T12:39:31;100975.44;;;18.52;60.58
82395;BME280;72031;51.786;4.662;2023-08-06T12:41:58;100993.50;;;18.52;59.81
82395;BME280;72031;51.786;4.662;2023-08-06T12:44:24;100986.47;;;18.41;59.75
82395;BME280;72031;51.786;4.662;2023-08-06T12:46:51;100994.53;;;18.51;61.78
82395;BME280;72031;51.786;4.662;2023-08-06T12:49:17;100992.94;;;18.48;60.49
82395;BME280;72031;51.786;4.662;2023-08-06T12:51:43;100994.72;;;18.40;60.52
82395;BME280;72031;51.786;4.662;2023-08-06T12:54:08;101004.31;;;18.52;60.90
82395;BME280;72031;51.786;4.662;2023-08-06T12:56:34;100998.25;;;18.68;61.88